sensor_id;sensor_type;location;lat;lon;timestamp;pressure;altitude;pressure_sealevel;temperature;humidity
10618;BME280;5356;43.526;26.534;2023-08-08T00:02:06;98842.19;;;21.76;100.00
10618;BME280;5356;43.526;26.534;2023-08-08T00:04:32;98841.81;;;21.83;100.00
10618;BME280;5356;43.526;26.534;2023-08-08T00:06:57;98844.31;;;21.79;100.00
10618;BME280;5356;43.526;26.534;2023-08-08T00:09:23;98840.69;;;21.70;100.00
10618;BME280;5356;43.526;26.534;2023-08-08T00:11:48;98842.19;;;21.62;100.00
10618;BME280;5356;43.526;26.534;2023-08-08T00:14:14;98844.50;;;21.41;100.00
10618;BME280;5356;43.526;26.534;2023-08-08T00:16:40;98839.97;;;21.37;100.00
10618;BME280;5356;43.526;26.534;2023-08-08T00:19:05;98840.25;;;21.35;100.00
10618;BME280;5356;43.526;26.534;2023-08-08T00:21:31;98841.94;;;21.31;100.00
10618;BME280;5356;43.526;26.534;2023-08-08T00:23:56;98837.19;;;21.23;100.00
10618;BME280;5356;43.526;26.534;2023-08-08T00:26:22;98842.41;;;21.19;100.00
10618;BME280;5356;43.526;26.534;2023-08-08T00:28:47;98845.13;;;21.19;100.00
10618;BME280;5356;43.526;26.534;2023-08-08T00:31:13;98841.19;;;21.12;100.00
10618;BME280;5356;43.526;26.534;2023-08-08T00:33:38;98846.13;;;21.10;100.00
10618;BME280;5356;43.526;26.534;2023-08-08T00:36:04;98840.41;;;21.25;100.00
10618;BME280;5356;43.526;26.534;2023-08-08T00:38:29;98845.72;;;21.16;100.00
10618;BME280;5356;43.526;26.534;2023-08-08T00:40:55;98844.72;;;21.12;100.00
10618;BME280;5356;43.526;26.534;2023-08-08T00:43:20;98837.75;;;21.06;100.00
10618;BME280;5356;43.526;26.534;2023-08-08T00:45:46;98836.59;;;21.12;100.00
10618;BME280;5356;43.526;26.534;2023-08-08T00:48:11;98830.06;;;21.13;100.00
10618;BME280;5356;43.526;26.534;2023-08-08T00:50:42;98833.06;;;20.98;100.00
10618;BME280;5356;43.526;26.534;2023-08-08T00:53:08;98833.66;;;20.95;100.00
10618;BME280;5356;43.526;26.534;2023-08-08T00:55:33;98830.13;;;20.94;100.00
10618;BME280;5356;43.526;26.534;2023-08-08T00:57:59;98830.34;;;20.98;100.00
10618;BME280;5356;43.526;26.534;2023-08-08T01:00:24;98831.63;;;21.00;100.00
10618;BME280;5356;43.526;26.534;2023-08-08T01:02:50;98826.81;;;20.97;100.00
10618;BME280;5356;43.526;26.534;2023-08-08T01:05:15;98838.16;;;20.99;100.00
10618;BME280;5356;43.526;26.534;2023-08-08T01:07:54;98837.28;;;21.04;100.00
10618;BME280;5356;43.526;26.534;2023-08-08T01:10:26;98834.16;;;21.11;100.00
10618;BME280;5356;43.526;26.534;2023-08-08T01:12:56;98835.91;;;21.20;100.00
10618;BME280;5356;43.526;26.534;2023-08-08T01:15:25;98836.75;;;21.35;100.00
10618;BME280;5356;43.526;26.534;2023-08-08T01:17:51;98847.22;;;21.41;100.00
10618;BME280;5356;43.526;26.534;2023-08-08T01:20:17;98835.34;;;21.37;100.00
10618;BME280;5356;43.526;26.534;2023-08-08T01:25:21;98839.09;;;21.22;100.00
10618;BME280;5356;43.526;26.534;2023-08-08T01:27:47;98836.28;;;21.14;100.00
10618;BME280;5356;43.526;26.534;2023-08-08T01:30:12;98826.84;;;21.11;100.00
10618;BME280;5356;43.526;26.534;2023-08-08T01:32:38;98833.38;;;21.10;100.00
10618;BME280;5356;43.526;26.534;2023-08-08T01:35:04;98830.22;;;21.03;100.00
10618;BME280;5356;43.526;26.534;2023-08-08T01:37:32;98828.88;;;21.19;100.00
10618;BME280;5356;43.526;26.534;2023-08-08T01:40:01;98812.88;;;21.37;100.00
10618;BME280;5356;43.526;26.534;2023-08-08T01:42:27;98821.09;;;21.45;100.00
10618;BME280;5356;43.526;26.534;2023-08-08T01:44:55;98805.06;;;21.49;100.00
10618;BME280;5356;43.526;26.534;2023-08-08T01:47:20;98816.50;;;21.46;100.00
10618;BME280;5356;43.526;26.534;2023-08-08T01:49:46;98841.00;;;21.41;100.00
10618;BME280;5356;43.526;26.534;2023-08-08T01:52:11;98859.03;;;21.45;100.00
10618;BME280;5356;43.526;26.534;2023-08-08T01:54:37;98857.91;;;21.33;100.00
10618;BME280;5356;43.526;26.534;2023-08-08T01:57:02;98854.16;;;21.15;100.00
10618;BME280;5356;43.526;26.534;2023-08-08T01:59:28;98853.25;;;21.19;100.00
10618;BME280;5356;43.526;26.534;2023-08-08T02:01:53;98855.06;;;21.24;100.00
10618;BME280;5356;43.526;26.534;2023-08-08T02:04:20;98865.91;;;21.24;100.00
10618;BME280;5356;43.526;26.534;2023-08-08T02:06:46;98877.22;;;21.12;100.00
10618;BME280;5356;43.526;26.534;2023-08-08T02:09:12;98884.19;;;20.99;100.00
10618;BME280;5356;43.526;26.534;2023-08-08T02:11:40;98878.81;;;20.80;100.00
10618;BME280;5356;43.526;26.534;2023-08-08T02:14:05;98892.72;;;20.74;100.00
10618;BME280;5356;43.526;26.534;2023-08-08T02:16:31;98904.34;;;20.74;100.00
10618;BME280;5356;43.526;26.534;2023-08-08T02:18:56;98912.91;;;20.62;100.00
10618;BME280;5356;43.526;26.534;2023-08-08T02:21:22;98923.88;;;20.52;100.00
10618;BME280;5356;43.526;26.534;2023-08-08T02:23:47;98935.41;;;20.39;100.00
10618;BME280;5356;43.526;26.534;2023-08-08T02:26:12;98931.63;;;20.16;100.00
10618;BME280;5356;43.526;26.534;2023-08-08T02:28:39;98921.88;;;20.15;100.00
10618;BME280;5356;43.526;26.534;2023-08-08T02:31:04;98924.16;;;20.08;100.00
10618;BME280;5356;43.526;26.534;2023-08-08T02:33:30;98925.97;;;20.12;100.00
10618;BME280;5356;43.526;26.534;2023-08-08T02:35:55;98926.72;;;20.18;100.00
10618;BME280;5356;43.526;26.534;2023-08-08T02:38:21;98939.03;;;20.29;100.00
10618;BME280;5356;43.526;26.534;2023-08-08T02:40:47;98947.72;;;20.26;100.00
10618;BME280;5356;43.526;26.534;2023-08-08T02:43:12;98934.84;;;20.18;100.00
10618;BME280;5356;43.526;26.534;2023-08-08T02:45:38;98933.59;;;20.10;100.00
10618;BME280;5356;43.526;26.534;2023-08-08T02:48:04;98944.53;;;20.24;100.00
10618;BME280;5356;43.526;26.534;2023-08-08T02:50:30;98945.41;;;20.38;100.00
10618;BME280;5356;43.526;26.534;2023-08-08T02:52:56;98942.88;;;20.47;100.00
10618;BME280;5356;43.526;26.534;2023-08-08T02:55:22;98942.78;;;20.33;100.00
10618;BME280;5356;43.526;26.534;2023-08-08T02:57:47;98944.91;;;20.36;100.00
10618;BME280;5356;43.526;26.534;2023-08-08T03:00:13;98951.53;;;20.25;100.00
10618;BME280;5356;43.526;26.534;2023-08-08T03:02:39;98951.16;;;20.32;100.00
10618;BME280;5356;43.526;26.534;2023-08-08T03:05:04;98954.41;;;20.34;100.00
10618;BME280;5356;43.526;26.534;2023-08-08T03:07:31;98951.84;;;20.42;100.00
10618;BME280;5356;43.526;26.534;2023-08-08T03:09:56;98963.69;;;20.28;100.00
10618;BME280;5356;43.526;26.534;2023-08-08T03:12:21;98960.81;;;20.38;100.00
10618;BME280;5356;43.526;26.534;2023-08-08T03:14:47;98959.22;;;20.37;100.00
10618;BME280;5356;43.526;26.534;2023-08-08T03:17:13;98953.72;;;20.23;100.00
10618;BME280;5356;43.526;26.534;2023-08-08T03:19:38;98945.78;;;20.08;100.00
10618;BME280;5356;43.526;26.534;2023-08-08T03:22:04;98946.84;;;20.07;100.00
10618;BME280;5356;43.526;26.534;2023-08-08T03:24:29;98954.06;;;20.16;100.00
10618;BME280;5356;43.526;26.534;2023-08-08T03:26:55;98951.59;;;20.20;100.00
10618;BME280;5356;43.526;26.534;2023-08-08T03:29:20;98962.78;;;20.32;100.00
10618;BME280;5356;43.526;26.534;2023-08-08T03:31:46;98960.34;;;20.36;100.00
10618;BME280;5356;43.526;26.534;2023-08-08T03:34:11;98961.19;;;20.31;100.00
10618;BME280;5356;43.526;26.534;2023-08-08T03:36:37;98951.69;;;20.34;100.00
10618;BME280;5356;43.526;26.534;2023-08-08T03:39:02;98966.47;;;20.41;100.00
10618;BME280;5356;43.526;26.534;2023-08-08T03:41:28;98971.31;;;20.45;100.00
10618;BME280;5356;43.526;26.534;2023-08-08T03:43:54;98979.44;;;20.45;100.00
10618;BME280;5356;43.526;26.534;2023-08-08T03:46:21;98986.97;;;20.48;100.00
10618;BME280;5356;43.526;26.534;2023-08-08T03:48:47;98994.56;;;20.46;100.00
10618;BME280;5356;43.526;26.534;2023-08-08T03:51:12;99001.50;;;20.33;100.00
10618;BME280;5356;43.526;26.534;2023-08-08T03:53:38;99012.91;;;20.30;100.00
10618;BME280;5356;43.526;26.534;2023-08-08T03:56:03;99017.59;;;20.19;100.00
10618;BME280;5356;43.526;26.534;2023-08-08T03:58:28;99019.88;;;20.07;100.00
10618;BME280;5356;43.526;26.534;2023-08-08T04:00:54;99025.59;;;20.05;100.00
10618;BME280;5356;43.526;26.534;2023-08-08T04:03:19;99011.34;;;19.94;100.00
10618;BME280;5356;43.526;26.534;2023-08-08T04:05:46;99016.81;;;19.89;100.00
10618;BME280;5356;43.526;26.534;2023-08-08T04:08:12;99025.97;;;19.93;100.00
10618;BME280;5356;43.526;26.534;2023-08-08T04:10:38;99020.28;;;19.95;100.00
10618;BME280;5356;43.526;26.534;2023-08-08T04:13:03;99023.16;;;20.04;100.00
10618;BME280;5356;43.526;26.534;2023-08-08T04:15:29;99011.94;;;19.91;100.00
10618;BME280;5356;43.526;26.534;2023-08-08T04:17:54;99022.03;;;19.81;100.00
10618;BME280;5356;43.526;26.534;2023-08-08T04:20:20;99031.09;;;19.66;100.00
10618;BME280;5356;43.526;26.534;2023-08-08T04:22:45;99024.03;;;19.65;100.00
10618;BME280;5356;43.526;26.534;2023-08-08T04:25:11;99029.72;;;19.63;100.00
10618;BME280;5356;43.526;26.534;2023-08-08T04:27:36;99029.72;;;19.68;100.00
10618;BME280;5356;43.526;26.534;2023-08-08T04:30:02;99051.56;;;19.72;100.00
10618;BME280;5356;43.526;26.534;2023-08-08T04:32:28;99055.91;;;19.73;100.00
10618;BME280;5356;43.526;26.534;2023-08-08T04:34:54;99059.06;;;19.80;100.00
10618;BME280;5356;43.526;26.534;2023-08-08T04:37:19;99059.59;;;19.82;100.00
10618;BME280;5356;43.526;26.534;2023-08-08T04:39:45;99062.16;;;19.68;100.00
10618;BME280;5356;43.526;26.534;2023-08-08T04:42:10;99061.34;;;19.63;100.00
10618;BME280;5356;43.526;26.534;2023-08-08T04:44:35;99056.53;;;19.55;100.00
10618;BME280;5356;43.526;26.534;2023-08-08T04:47:01;99057.59;;;19.59;100.00
10618;BME280;5356;43.526;26.534;2023-08-08T04:49:26;99066.25;;;19.56;100.00
10618;BME280;5356;43.526;26.534;2023-08-08T04:51:54;99070.03;;;19.60;100.00
10618;BME280;5356;43.526;26.534;2023-08-08T04:54:19;99069.72;;;19.66;100.00
10618;BME280;5356;43.526;26.534;2023-08-08T04:56:44;99077.53;;;19.73;100.00
10618;BME280;5356;43.526;26.534;2023-08-08T04:59:10;99079.41;;;19.72;100.00
10618;BME280;5356;43.526;26.534;2023-08-08T05:01:35;99086.75;;;19.67;100.00
10618;BME280;5356;43.526;26.534;2023-08-08T05:04:04;99093.81;;;19.58;100.00
10618;BME280;5356;43.526;26.534;2023-08-08T05:06:30;99092.28;;;19.46;100.00
10618;BME280;5356;43.526;26.534;2023-08-08T05:08:55;99097.63;;;19.51;100.00
10618;BME280;5356;43.526;26.534;2023-08-08T05:11:22;99090.88;;;19.54;100.00
10618;BME280;5356;43.526;26.534;2023-08-08T05:13:47;99090.28;;;19.62;100.00
10618;BME280;5356;43.526;26.534;2023-08-08T05:16:13;99098.66;;;19.61;100.00
10618;BME280;5356;43.526;26.534;2023-08-08T05:18:41;99097.28;;;19.68;100.00
10618;BME280;5356;43.526;26.534;2023-08-08T05:21:09;99102.31;;;19.80;100.00
10618;BME280;5356;43.526;26.534;2023-08-08T05:23:56;99092.63;;;19.79;100.00
10618;BME280;5356;43.526;26.534;2023-08-08T05:26:23;99092.84;;;19.83;100.00
10618;BME280;5356;43.526;26.534;2023-08-08T05:28:48;99093.09;;;19.86;100.00
10618;BME280;5356;43.526;26.534;2023-08-08T05:31:14;99089.84;;;19.84;100.00
10618;BME280;5356;43.526;26.534;2023-08-08T05:33:39;99089.00;;;19.89;100.00
10618;BME280;5356;43.526;26.534;2023-08-08T05:36:04;99097.13;;;19.89;100.00
10618;BME280;5356;43.526;26.534;2023-08-08T05:38:30;99097.41;;;19.87;100.00
10618;BME280;5356;43.526;26.534;2023-08-08T05:40:55;99095.31;;;19.79;100.00
10618;BME280;5356;43.526;26.534;2023-08-08T05:43:21;99101.00;;;19.78;100.00
10618;BME280;5356;43.526;26.534;2023-08-08T05:45:47;99102.38;;;19.75;100.00
10618;BME280;5356;43.526;26.534;2023-08-08T05:48:12;99114.88;;;19.66;100.00
10618;BME280;5356;43.526;26.534;2023-08-08T05:50:41;99118.66;;;19.60;100.00
10618;BME280;5356;43.526;26.534;2023-08-08T05:53:07;99112.75;;;19.52;100.00
10618;BME280;5356;43.526;26.534;2023-08-08T05:55:32;99123.59;;;19.47;100.00
10618;BME280;5356;43.526;26.534;2023-08-08T05:57:58;99125.81;;;19.40;100.00
10618;BME280;5356;43.526;26.534;2023-08-08T06:00:24;99133.63;;;19.42;100.00
10618;BME280;5356;43.526;26.534;2023-08-08T06:03:14;99144.75;;;19.35;100.00
10618;BME280;5356;43.526;26.534;2023-08-08T06:05:39;99141.00;;;19.26;100.00
10618;BME280;5356;43.526;26.534;2023-08-08T06:08:17;99132.34;;;19.34;100.00
10618;BME280;5356;43.526;26.534;2023-08-08T06:11:02;99126.41;;;19.27;100.00
10618;BME280;5356;43.526;26.534;2023-08-08T06:13:27;99139.69;;;19.23;100.00
10618;BME280;5356;43.526;26.534;2023-08-08T06:15:54;99140.22;;;19.25;100.00
10618;BME280;5356;43.526;26.534;2023-08-08T06:18:22;99145.31;;;19.32;100.00
10618;BME280;5356;43.526;26.534;2023-08-08T06:20:47;99149.91;;;19.26;100.00
10618;BME280;5356;43.526;26.534;2023-08-08T06:23:13;99155.63;;;19.25;100.00
10618;BME280;5356;43.526;26.534;2023-08-08T06:25:40;99162.63;;;19.26;100.00
10618;BME280;5356;43.526;26.534;2023-08-08T06:28:05;99166.94;;;19.27;100.00
10618;BME280;5356;43.526;26.534;2023-08-08T06:30:31;99178.53;;;19.27;100.00
10618;BME280;5356;43.526;26.534;2023-08-08T07:02:20;99178.69;;;18.97;100.00
10618;BME280;5356;43.526;26.534;2023-08-08T07:47:18;99185.34;;;19.20;100.00
10618;BME280;5356;43.526;26.534;2023-08-08T07:50:20;99176.69;;;19.18;100.00
10618;BME280;5356;43.526;26.534;2023-08-08T07:55:51;99178.28;;;19.24;100.00
10618;BME280;5356;43.526;26.534;2023-08-08T07:58:16;99175.03;;;19.27;100.00
10618;BME280;5356;43.526;26.534;2023-08-08T08:00:45;99164.44;;;19.41;100.00
10618;BME280;5356;43.526;26.534;2023-08-08T08:03:10;99174.41;;;19.45;100.00
10618;BME280;5356;43.526;26.534;2023-08-08T08:05:36;99169.53;;;19.47;100.00
10618;BME280;5356;43.526;26.534;2023-08-08T08:08:04;99174.41;;;19.45;100.00
10618;BME280;5356;43.526;26.534;2023-08-08T08:10:29;99170.63;;;19.46;100.00
10618;BME280;5356;43.526;26.534;2023-08-08T08:12:55;99169.59;;;19.37;100.00
10618;BME280;5356;43.526;26.534;2023-08-08T08:15:26;99169.06;;;19.35;100.00
10618;BME280;5356;43.526;26.534;2023-08-08T08:17:51;99166.91;;;19.37;100.00
10618;BME280;5356;43.526;26.534;2023-08-08T08:20:17;99167.16;;;19.36;100.00
10618;BME280;5356;43.526;26.534;2023-08-08T08:22:43;99176.34;;;19.40;100.00
10618;BME280;5356;43.526;26.534;2023-08-08T08:25:09;99190.69;;;19.30;100.00
10618;BME280;5356;43.526;26.534;2023-08-08T08:27:36;99185.34;;;19.25;100.00
10618;BME280;5356;43.526;26.534;2023-08-08T08:30:06;99182.03;;;19.33;100.00
10618;BME280;5356;43.526;26.534;2023-08-08T08:32:38;99186.38;;;19.29;100.00
10618;BME280;5356;43.526;26.534;2023-08-08T08:35:04;99196.66;;;19.27;100.00
10618;BME280;5356;43.526;26.534;2023-08-08T08:37:31;99197.75;;;19.21;100.00
10618;BME280;5356;43.526;26.534;2023-08-08T08:39:57;99194.47;;;19.29;100.00
10618;BME280;5356;43.526;26.534;2023-08-08T08:42:23;99177.94;;;19.41;100.00
10618;BME280;5356;43.526;26.534;2023-08-08T08:44:49;99181.72;;;19.45;100.00
10618;BME280;5356;43.526;26.534;2023-08-08T08:47:17;99185.16;;;19.56;100.00
10618;BME280;5356;43.526;26.534;2023-08-08T08:49:44;99190.75;;;19.74;100.00
10618;BME280;5356;43.526;26.534;2023-08-08T08:52:11;99190.44;;;19.81;100.00
10618;BME280;5356;43.526;26.534;2023-08-08T08:54:37;99198.06;;;19.74;100.00
10618;BME280;5356;43.526;26.534;2023-08-08T08:57:02;99192.66;;;19.74;100.00
10618;BME280;5356;43.526;26.534;2023-08-08T08:59:29;99195.28;;;19.84;100.00
10618;BME280;5356;43.526;26.534;2023-08-08T09:01:55;99175.16;;;20.01;100.00
10618;BME280;5356;43.526;26.534;2023-08-08T09:04:21;99179.41;;;20.12;100.00
10618;BME280;5356;43.526;26.534;2023-08-08T09:06:48;99182.69;;;20.09;100.00
10618;BME280;5356;43.526;26.534;2023-08-08T09:09:14;99178.44;;;19.98;100.00
10618;BME280;5356;43.526;26.534;2023-08-08T09:11:44;99175.16;;;20.01;100.00
10618;BME280;5356;43.526;26.534;2023-08-08T09:14:21;99177.44;;;20.23;100.00
10618;BME280;5356;43.526;26.534;2023-08-08T09:16:48;99173.91;;;20.27;100.00
10618;BME280;5356;43.526;26.534;2023-08-08T09:19:17;99174.94;;;20.31;100.00
10618;BME280;5356;43.526;26.534;2023-08-08T09:21:46;99177.69;;;20.21;100.00
10618;BME280;5356;43.526;26.534;2023-08-08T09:24:12;99169.09;;;20.19;100.00
10618;BME280;5356;43.526;26.534;2023-08-08T09:26:39;99175.75;;;20.27;100.00
10618;BME280;5356;43.526;26.534;2023-08-08T09:29:05;99172.53;;;20.30;100.00
10618;BME280;5356;43.526;26.534;2023-08-08T09:31:31;99178.78;;;20.25;100.00
10618;BME280;5356;43.526;26.534;2023-08-08T09:34:01;99181.81;;;20.53;100.00
10618;BME280;5356;43.526;26.534;2023-08-08T09:36:27;99180.44;;;20.50;100.00
10618;BME280;5356;43.526;26.534;2023-08-08T09:38:54;99180.22;;;20.47;100.00
10618;BME280;5356;43.526;26.534;2023-08-08T09:41:21;99184.22;;;20.54;100.00
10618;BME280;5356;43.526;26.534;2023-08-08T09:43:48;99184.88;;;20.70;100.00
10618;BME280;5356;43.526;26.534;2023-08-08T09:46:15;99183.50;;;20.73;100.00
10618;BME280;5356;43.526;26.534;2023-08-08T09:48:43;99185.47;;;20.67;100.00
10618;BME280;5356;43.526;26.534;2023-08-08T09:51:09;99186.22;;;20.73;100.00
10618;BME280;5356;43.526;26.534;2023-08-08T09:53:35;99179.28;;;20.85;100.00
10618;BME280;5356;43.526;26.534;2023-08-08T09:56:05;99175.78;;;21.09;100.00
10618;BME280;5356;43.526;26.534;2023-08-08T09:58:31;99175.31;;;21.02;100.00
10618;BME280;5356;43.526;26.534;2023-08-08T10:00:57;99173.47;;;20.97;100.00
10618;BME280;5356;43.526;26.534;2023-08-08T10:03:24;99179.28;;;20.85;100.00
10618;BME280;5356;43.526;26.534;2023-08-08T10:05:49;99179.03;;;20.87;100.00
10618;BME280;5356;43.526;26.534;2023-08-08T10:08:15;99177.34;;;20.91;100.00
10618;BME280;5356;43.526;26.534;2023-08-08T10:10:44;99179.91;;;21.25;100.00
10618;BME280;5356;43.526;26.534;2023-08-08T10:13:18;99168.63;;;21.61;100.00
10618;BME280;5356;43.526;26.534;2023-08-08T10:15:44;99174.41;;;21.73;100.00
10618;BME280;5356;43.526;26.534;2023-08-08T10:18:09;99170.91;;;21.73;100.00
10618;BME280;5356;43.526;26.534;2023-08-08T10:20:38;99172.22;;;21.75;100.00
10618;BME280;5356;43.526;26.534;2023-08-08T10:23:03;99172.16;;;21.81;100.00
10618;BME280;5356;43.526;26.534;2023-08-08T10:25:31;99172.44;;;21.98;100.00
10618;BME280;5356;43.526;26.534;2023-08-08T10:28:08;99170.44;;;22.04;100.00
10618;BME280;5356;43.526;26.534;2023-08-08T10:30:56;99159.00;;;22.26;100.00
10618;BME280;5356;43.526;26.534;2023-08-08T10:33:23;99152.50;;;22.54;100.00
10618;BME280;5356;43.526;26.534;2023-08-08T10:36:07;99153.25;;;22.74;100.00
10618;BME280;5356;43.526;26.534;2023-08-08T10:38:48;99148.44;;;22.98;100.00
10618;BME280;5356;43.526;26.534;2023-08-08T10:41:18;99137.13;;;22.91;100.00
10618;BME280;5356;43.526;26.534;2023-08-08T10:43:57;99137.13;;;22.91;100.00
10618;BME280;5356;43.526;26.534;2023-08-08T10:48:55;99147.41;;;23.22;100.00
10618;BME280;5356;43.526;26.534;2023-08-08T10:51:21;99142.25;;;23.34;100.00
10618;BME280;5356;43.526;26.534;2023-08-08T10:53:51;99131.84;;;23.50;100.00
10618;BME280;5356;43.526;26.534;2023-08-08T10:56:34;99129.94;;;23.50;100.00
10618;BME280;5356;43.526;26.534;2023-08-08T11:08:07;99124.56;;;23.73;100.00
10618;BME280;5356;43.526;26.534;2023-08-08T11:11:35;99120.47;;;23.84;100.00
10618;BME280;5356;43.526;26.534;2023-08-08T11:14:29;99119.53;;;24.11;98.50
10618;BME280;5356;43.526;26.534;2023-08-08T11:17:27;99113.94;;;24.16;97.24
10618;BME280;5356;43.526;26.534;2023-08-08T11:20:18;99114.59;;;24.45;96.92
10618;BME280;5356;43.526;26.534;2023-08-08T11:26:46;99116.91;;;25.00;89.90
10618;BME280;5356;43.526;26.534;2023-08-08T11:29:28;99109.53;;;25.09;89.37
10618;BME280;5356;43.526;26.534;2023-08-08T11:38:37;99113.38;;;24.59;87.09
10618;BME280;5356;43.526;26.534;2023-08-08T11:44:37;99121.09;;;25.06;85.84
10618;BME280;5356;43.526;26.534;2023-08-08T11:56:39;99107.63;;;25.09;77.86
10618;BME280;5356;43.526;26.534;2023-08-08T11:59:23;99096.13;;;25.39;78.08
10618;BME280;5356;43.526;26.534;2023-08-08T12:01:54;99099.50;;;25.27;76.99
10618;BME280;5356;43.526;26.534;2023-08-08T12:07:47;99102.72;;;25.38;75.39
10618;BME280;5356;43.526;26.534;2023-08-08T12:10:28;99095.31;;;25.73;76.29
10618;BME280;5356;43.526;26.534;2023-08-08T12:13:40;99095.78;;;26.01;74.57
10618;BME280;5356;43.526;26.534;2023-08-08T12:23:30;99088.22;;;26.62;65.58
10618;BME280;5356;43.526;26.534;2023-08-08T12:26:37;99083.06;;;26.70;61.56
10618;BME280;5356;43.526;26.534;2023-08-08T12:29:10;99078.38;;;26.70;61.62
10618;BME280;5356;43.526;26.534;2023-08-08T12:31:51;99073.81;;;26.83;63.13
10618;BME280;5356;43.526;26.534;2023-08-08T12:34:17;99078.19;;;27.05;62.48
10618;BME280;5356;43.526;26.534;2023-08-08T12:36:42;99072.69;;;26.84;60.59
10618;BME280;5356;43.526;26.534;2023-08-08T12:39:08;99069.28;;;26.87;60.29
10618;BME280;5356;43.526;26.534;2023-08-08T12:41:35;99068.16;;;26.88;61.14
10618;BME280;5356;43.526;26.534;2023-08-08T12:44:01;99063.53;;;27.09;59.76
10618;BME280;5356;43.526;26.534;2023-08-08T12:46:28;99071.78;;;27.01;60.17
10618;BME280;5356;43.526;26.534;2023-08-08T12:48:54;99063.88;;;26.78;59.48
10618;BME280;5356;43.526;26.534;2023-08-08T12:51:19;99067.38;;;27.08;60.74
10618;BME280;5356;43.526;26.534;2023-08-08T12:53:45;99061.34;;;27.24;58.74
10618;BME280;5356;43.526;26.534;2023-08-08T12:56:10;99063.91;;;27.29;57.89
10618;BME280;5356;43.526;26.534;2023-08-08T12:58:37;99061.09;;;27.38;56.94
10618;BME280;5356;43.526;26.534;2023-08-08T13:01:04;99059.78;;;27.56;55.93
10618;BME280;5356;43.526;26.534;2023-08-08T13:03:29;99065.72;;;27.79;56.88
10618;BME280;5356;43.526;26.534;2023-08-08T13:05:56;99054.00;;;27.91;56.67
10618;BME280;5356;43.526;26.534;2023-08-08T13:08:21;99051.50;;;27.86;56.87
10618;BME280;5356;43.526;26.534;2023-08-08T13:10:47;99062.34;;;27.94;55.85
10618;BME280;5356;43.526;26.534;2023-08-08T13:13:12;99049.69;;;28.02;54.02
10618;BME280;5356;43.526;26.534;2023-08-08T13:15:38;99058.25;;;28.01;53.11
10618;BME280;5356;43.526;26.534;2023-08-08T13:18:04;99049.25;;;28.12;53.05
10618;BME280;5356;43.526;26.534;2023-08-08T13:20:30;99042.94;;;27.99;53.25
10618;BME280;5356;43.526;26.534;2023-08-08T13:22:55;99051.16;;;27.99;53.27
10618;BME280;5356;43.526;26.534;2023-08-08T13:25:22;99045.84;;;28.15;51.95
10618;BME280;5356;43.526;26.534;2023-08-08T13:27:47;99049.16;;;28.33;51.15
10618;BME280;5356;43.526;26.534;2023-08-08T13:30:16;99043.16;;;28.52;51.55
10618;BME280;5356;43.526;26.534;2023-08-08T13:32:42;99045.75;;;28.73;49.69
10618;BME280;5356;43.526;26.534;2023-08-08T13:35:07;99054.00;;;28.85;47.69
10618;BME280;5356;43.526;26.534;2023-08-08T13:37:33;99048.97;;;28.87;47.25
10618;BME280;5356;43.526;26.534;2023-08-08T13:39:58;99049.91;;;28.55;48.63
10618;BME280;5356;43.526;26.534;2023-08-08T13:42:25;99058.78;;;28.39;48.39
10618;BME280;5356;43.526;26.534;2023-08-08T13:44:51;99049.91;;;28.42;49.19
10618;BME280;5356;43.526;26.534;2023-08-08T13:47:17;99043.72;;;28.46;48.53
10618;BME280;5356;43.526;26.534;2023-08-08T13:49:43;99051.94;;;28.58;49.21
10618;BME280;5356;43.526;26.534;2023-08-08T13:52:08;99054.47;;;28.63;48.18
10618;BME280;5356;43.526;26.534;2023-08-08T13:54:34;99051.22;;;28.24;48.85
10618;BME280;5356;43.526;26.534;2023-08-08T13:56:59;99060.84;;;28.55;48.38
10618;BME280;5356;43.526;26.534;2023-08-08T13:59:25;99051.94;;;28.58;47.10
10618;BME280;5356;43.526;26.534;2023-08-08T14:01:52;99060.03;;;28.79;47.68
10618;BME280;5356;43.526;26.534;2023-08-08T14:04:17;99059.81;;;28.84;46.57
10618;BME280;5356;43.526;26.534;2023-08-08T14:06:43;99053.06;;;29.06;46.90
10618;BME280;5356;43.526;26.534;2023-08-08T14:09:08;99052.94;;;29.02;46.12
10618;BME280;5356;43.526;26.534;2023-08-08T14:11:33;99068.50;;;28.86;46.45
10618;BME280;5356;43.526;26.534;2023-08-08T14:13:59;99067.34;;;28.87;44.84
10618;BME280;5356;43.526;26.534;2023-08-08T14:16:24;99064.97;;;28.85;44.17
10618;BME280;5356;43.526;26.534;2023-08-08T14:18:50;99073.41;;;28.80;44.10
10618;BME280;5356;43.526;26.534;2023-08-08T14:21:15;99072.16;;;28.78;43.85
10618;BME280;5356;43.526;26.534;2023-08-08T14:23:41;99068.59;;;28.90;44.60
10618;BME280;5356;43.526;26.534;2023-08-08T14:26:06;99072.69;;;28.96;46.28
10618;BME280;5356;43.526;26.534;2023-08-08T14:28:32;99071.81;;;28.79;44.68
10618;BME280;5356;43.526;26.534;2023-08-08T14:30:57;99070.41;;;28.98;44.76
10618;BME280;5356;43.526;26.534;2023-08-08T14:33:23;99069.16;;;28.95;43.92
10618;BME280;5356;43.526;26.534;2023-08-08T14:35:49;99077.75;;;28.94;43.73
10618;BME280;5356;43.526;26.534;2023-08-08T14:38:15;99079.91;;;29.00;42.66
10618;BME280;5356;43.526;26.534;2023-08-08T14:40:43;99081.28;;;28.94;42.51
10618;BME280;5356;43.526;26.534;2023-08-08T14:43:09;99085.28;;;28.97;42.34
10618;BME280;5356;43.526;26.534;2023-08-08T14:45:37;99087.47;;;29.03;42.68
10618;BME280;5356;43.526;26.534;2023-08-08T14:48:06;99072.50;;;28.76;42.15
10618;BME280;5356;43.526;26.534;2023-08-08T14:50:32;99084.13;;;28.73;42.06
10618;BME280;5356;43.526;26.534;2023-08-08T14:52:57;99083.56;;;28.68;41.87
10618;BME280;5356;43.526;26.534;2023-08-08T14:55:23;99076.41;;;28.51;41.50
10618;BME280;5356;43.526;26.534;2023-08-08T14:57:48;99071.81;;;28.55;41.72
10618;BME280;5356;43.526;26.534;2023-08-08T15:00:14;99074.44;;;28.51;42.12